KSYR/SYR METAR and TAF weather

Enter ICAO airport designator
Station Type Date Time Source
KSYR METAR 2019/04/24 15:54 UTC NOAA

KSYR 241554Z 28018G24KT 10SM SCT025 OVC030 07/01 A2990 RMK AO2 SLP124 T00720011


Station Type Date Time Source
KSYR Decoded METAR 2019/04/24 15:54 UTC NOAA

SYRACUSE HANCOCK INTERNATIONAL AIRPORT , NY, United States (KSYR) 43-07N 76-06W 127M
Apr 24, 2019 - 11:54 AM EDT / 2019.04.24 1554 UTC
Wind: from the W (280 degrees) at 21 MPH (18 KT) gusting to 28 MPH (24 KT):0
Visibility: 10 mile(s):0
Sky conditions: overcast
Temperature: 45.0 F (7.2 C)
Dew Point: 34.0 F (1.1 C)
Relative Humidity: 65%
Pressure (altimeter): 29.9 in. Hg (1012 hPa)
ob: KSYR 241554Z 28018G24KT 10SM SCT025 OVC030 07/01 A2990 RMK AO2 SLP124 T00720011
cycle: 16

Station Type Date Time Source
KSYR TAF 2019/04/24 12:36 UTC NOAA

TAF KSYR 241134Z 2412/2512 28015G25KT P6SM OVC025
TEMPO 2412/2415 SCT025 OVC040
FM242300 29006KT P6SM SCT035

Example: see airport list